createdAt,value
2019-05-13T00:00:30.522Z,28.10
2019-05-13T00:03:06.749Z,28.00
2019-05-13T00:05:44.553Z,28.00
2019-05-13T00:08:21.880Z,28.10
2019-05-13T00:10:58.814Z,28.20
2019-05-13T00:13:35.747Z,28.20
2019-05-13T00:16:13.955Z,28.30
2019-05-13T00:18:49.714Z,28.20
2019-05-13T00:21:25.651Z,28.20
2019-05-13T00:24:03.916Z,28.30
2019-05-13T00:26:40.370Z,28.40
2019-05-13T00:29:17.367Z,28.50
2019-05-13T00:31:54.047Z,28.70
2019-05-13T00:34:30.970Z,28.90
2019-05-13T00:37:11.497Z,29.00
2019-05-13T00:39:45.385Z,29.10
2019-05-13T00:42:24.356Z,29.40
2019-05-13T00:44:59.821Z,29.70
2019-05-13T00:47:36.435Z,29.80
2019-05-13T00:50:14.262Z,29.70
2019-05-13T00:52:53.599Z,29.60
2019-05-13T00:55:29.861Z,29.70
2019-05-13T00:58:06.799Z,29.60
2019-05-13T01:00:44.348Z,29.70
2019-05-13T01:03:21.617Z,30.10
2019-05-13T01:05:58.177Z,30.30
2019-05-13T01:08:34.756Z,30.40
2019-05-13T01:11:28.798Z,30.30
2019-05-13T01:14:06.511Z,30.00
2019-05-13T01:16:44.415Z,29.30
2019-05-13T01:19:23.561Z,29.40
2019-05-13T01:21:59.607Z,29.60
2019-05-13T01:24:36.732Z,29.80
2019-05-13T01:27:32.906Z,29.80
2019-05-13T01:30:09.481Z,30.20
2019-05-13T01:32:46.798Z,30.80
2019-05-13T01:35:23.714Z,31.10
2019-05-13T01:38:00.503Z,30.90
2019-05-13T01:40:38.776Z,30.40
2019-05-13T01:43:15.802Z,30.60
2019-05-13T01:45:53.730Z,31.10
2019-05-13T01:48:30.430Z,31.10
2019-05-13T01:51:07.316Z,31.30
2019-05-13T01:53:44.204Z,31.30
2019-05-13T01:56:23.854Z,30.90
2019-05-13T01:59:00.364Z,30.60
2019-05-13T02:01:37.263Z,30.80
2019-05-13T02:04:14.275Z,31.60
2019-05-13T02:06:50.785Z,31.70
2019-05-13T02:09:27.707Z,31.80
2019-05-13T02:12:04.817Z,32.40
2019-05-13T02:14:44.265Z,32.60
2019-05-13T02:17:19.894Z,31.80
2019-05-13T02:19:57.015Z,31.90
2019-05-13T02:22:34.226Z,31.70
2019-05-13T02:25:13.569Z,31.10
2019-05-13T02:27:48.841Z,30.70
2019-05-13T02:30:26.827Z,30.80
2019-05-13T02:33:03.567Z,31.00
2019-05-13T02:35:43.073Z,31.00
2019-05-13T02:38:24.721Z,30.90
2019-05-13T02:40:55.972Z,31.10
2019-05-13T02:43:33.300Z,31.30
2019-05-13T02:46:12.860Z,31.10
2019-05-13T02:48:48.324Z,30.90
2019-05-13T02:51:25.804Z,30.90
2019-05-13T02:54:03.476Z,31.30
2019-05-13T02:56:42.234Z,31.70
2019-05-13T02:59:19.167Z,32.60
2019-05-13T03:01:56.909Z,32.30
2019-05-13T03:04:33.398Z,31.80
2019-05-13T03:07:12.017Z,31.70
2019-05-13T03:09:48.124Z,32.10
2019-05-13T03:12:24.176Z,32.90
2019-05-13T03:15:03.090Z,32.90
2019-05-13T03:17:43.791Z,32.60
2019-05-13T03:20:22.392Z,33.10
2019-05-13T03:22:58.000Z,33.80
2019-05-13T03:25:35.511Z,33.50
2019-05-13T03:28:13.517Z,32.40
2019-05-13T03:30:55.971Z,32.40
2019-05-13T03:33:28.935Z,32.30
2019-05-13T03:36:07.838Z,32.90
2019-05-13T03:38:59.595Z,33.40
2019-05-13T03:41:23.067Z,33.30
2019-05-13T03:44:02.565Z,32.70
2019-05-13T03:46:42.703Z,32.50
2019-05-13T03:49:23.058Z,32.40
2019-05-13T03:51:58.334Z,32.40
2019-05-13T03:54:36.043Z,32.30
2019-05-13T03:57:17.633Z,32.40
2019-05-13T03:59:54.750Z,31.90
2019-05-13T04:02:32.522Z,31.80
2019-05-13T04:05:12.965Z,31.90
2019-05-13T04:07:47.669Z,32.30
2019-05-13T04:10:24.306Z,32.60
2019-05-13T04:13:03.732Z,32.90
2019-05-13T04:15:38.922Z,32.70
2019-05-13T04:18:15.474Z,32.40
2019-05-13T04:20:53.102Z,32.40
2019-05-13T04:23:32.262Z,32.70
2019-05-13T04:26:07.916Z,33.10
2019-05-13T04:28:44.643Z,32.90
2019-05-13T04:31:22.832Z,32.60
2019-05-13T04:34:02.042Z,32.90
2019-05-13T04:36:37.600Z,33.40
2019-05-13T04:39:13.960Z,33.40
2019-05-13T04:41:52.969Z,33.10
2019-05-13T04:44:32.031Z,32.50
2019-05-13T04:47:06.506Z,32.20
2019-05-13T04:49:43.189Z,31.90
2019-05-13T04:52:22.282Z,31.90
2019-05-13T04:54:57.877Z,31.90
2019-05-13T04:57:35.526Z,32.10
2019-05-13T05:00:13.032Z,32.50
2019-05-13T05:03:03.413Z,33.20
2019-05-13T05:06:22.418Z,32.80
2019-05-13T05:10:16.741Z,32.80
2019-05-13T05:13:08.759Z,33.10
2019-05-13T05:15:57.879Z,32.40
2019-05-13T05:19:14.820Z,32.60
2019-05-13T05:22:13.471Z,32.50
2019-05-13T05:25:29.683Z,33.00
2019-05-13T05:28:18.656Z,33.00
2019-05-13T05:31:36.007Z,33.20
2019-05-13T05:34:51.982Z,33.00
2019-05-13T05:37:49.097Z,33.20
2019-05-13T05:40:31.237Z,33.40
2019-05-13T05:43:08.767Z,33.60
2019-05-13T05:45:45.530Z,33.90
2019-05-13T05:48:24.630Z,33.80
2019-05-13T05:51:02.601Z,34.00
2019-05-13T05:53:42.300Z,34.60
2019-05-13T05:56:21.968Z,34.20
2019-05-13T05:59:02.740Z,33.70
2019-05-13T06:01:38.363Z,33.30
2019-05-13T06:04:15.195Z,33.00
2019-05-13T06:06:52.917Z,32.90
2019-05-13T06:09:32.073Z,33.00
2019-05-13T06:12:07.716Z,32.90
2019-05-13T06:14:43.780Z,33.00
2019-05-13T06:17:22.035Z,32.80
2019-05-13T06:20:02.618Z,32.90
2019-05-13T06:22:37.467Z,32.90
2019-05-13T06:25:14.700Z,33.00
2019-05-13T06:27:51.377Z,33.00
2019-05-13T06:30:28.105Z,33.40
2019-05-13T06:33:05.494Z,33.60
2019-05-13T06:35:44.779Z,33.30
2019-05-13T06:38:22.312Z,33.00
2019-05-13T06:41:02.637Z,33.00
2019-05-13T06:43:35.892Z,32.50
2019-05-13T06:46:13.570Z,32.40
2019-05-13T06:48:52.039Z,32.20
2019-05-13T06:51:28.073Z,32.60
2019-05-13T06:54:04.385Z,32.70
2019-05-13T06:56:42.873Z,32.60
2019-05-13T06:59:18.877Z,32.30
2019-05-13T07:01:55.086Z,32.70
2019-05-13T07:04:32.574Z,32.70
2019-05-13T07:07:14.049Z,32.30
2019-05-13T07:09:47.243Z,32.30
2019-05-13T07:12:23.501Z,32.40
2019-05-13T07:15:02.244Z,32.70
2019-05-13T07:17:41.383Z,32.90
2019-05-13T07:20:16.992Z,33.00
2019-05-13T07:22:53.830Z,33.20
2019-05-13T07:25:32.696Z,33.60
2019-05-13T07:28:08.306Z,34.10
2019-05-13T07:30:47.691Z,34.30
2019-05-13T07:33:24.118Z,34.60
2019-05-13T07:36:02.801Z,34.80
2019-05-13T07:38:41.548Z,33.80
2019-05-13T07:41:33.098Z,34.00
2019-05-13T07:43:56.382Z,33.30
2019-05-13T07:46:32.980Z,32.60
2019-05-13T07:49:11.819Z,32.50
2019-05-13T07:51:47.376Z,32.50
2019-05-13T07:54:24.497Z,32.40
2019-05-13T07:57:01.886Z,32.30
2019-05-13T07:59:38.999Z,32.30
2019-05-13T08:02:18.323Z,32.40
2019-05-13T08:04:55.188Z,32.40
2019-05-13T08:07:31.568Z,32.40
2019-05-13T08:10:16.871Z,32.40
2019-05-13T08:12:53.842Z,32.50
2019-05-13T08:15:31.661Z,32.80
2019-05-13T08:18:07.927Z,32.70
2019-05-13T08:20:44.740Z,32.40
2019-05-13T08:23:21.863Z,32.40
2019-05-13T08:25:58.643Z,32.40
2019-05-13T08:28:35.361Z,32.70
2019-05-13T08:31:12.049Z,32.90
2019-05-13T08:33:51.684Z,33.40
2019-05-13T08:36:26.921Z,33.40
2019-05-13T08:39:03.381Z,32.70
2019-05-13T08:41:42.177Z,32.60
2019-05-13T08:44:17.837Z,32.50
2019-05-13T08:46:55.203Z,32.60
2019-05-13T08:49:32.526Z,32.30
2019-05-13T08:52:12.118Z,32.30
2019-05-13T08:54:47.037Z,32.40
2019-05-13T08:57:24.376Z,32.40
2019-05-13T09:00:04.777Z,32.20
2019-05-13T09:02:38.945Z,32.50
2019-05-13T09:05:15.641Z,33.00
2019-05-13T09:07:53.144Z,33.10
2019-05-13T09:10:31.801Z,32.90
2019-05-13T09:13:07.699Z,32.80
2019-05-13T09:15:44.026Z,32.70
2019-05-13T09:18:22.804Z,32.60
2019-05-13T09:20:57.995Z,32.10
2019-05-13T09:23:35.049Z,32.20
2019-05-13T09:26:11.924Z,32.10
2019-05-13T09:28:48.724Z,32.20
2019-05-13T09:31:25.621Z,32.30
2019-05-13T09:34:02.382Z,32.30
2019-05-13T09:36:41.559Z,32.10
2019-05-13T09:39:17.039Z,32.20
2019-05-13T09:41:53.683Z,32.40
2019-05-13T09:44:32.412Z,32.40
2019-05-13T09:47:08.176Z,32.40
2019-05-13T09:49:45.300Z,32.40
2019-05-13T09:52:22.583Z,32.30
2019-05-13T09:54:59.492Z,32.10
2019-05-13T09:57:36.372Z,32.00
2019-05-13T10:00:13.118Z,31.80
2019-05-13T10:02:51.638Z,31.80
2019-05-13T10:05:28.222Z,31.70
2019-05-13T10:08:04.520Z,31.50
2019-05-13T10:10:42.394Z,31.00
2019-05-13T10:13:19.168Z,30.80
2019-05-13T10:15:56.195Z,30.80
2019-05-13T10:18:32.943Z,30.80
2019-05-13T10:21:10.021Z,30.50
2019-05-13T10:23:46.410Z,30.60
2019-05-13T10:26:24.831Z,30.70
2019-05-13T10:29:02.018Z,30.70
2019-05-13T10:31:38.508Z,30.60
2019-05-13T10:34:19.573Z,30.60
2019-05-13T10:36:56.288Z,30.60
2019-05-13T10:39:33.161Z,30.60
2019-05-13T10:42:11.954Z,30.50
2019-05-13T10:44:47.825Z,30.50
2019-05-13T10:47:24.426Z,30.40
2019-05-13T10:50:03.130Z,30.40
2019-05-13T10:52:42.525Z,30.40
2019-05-13T10:55:17.581Z,30.20
2019-05-13T10:57:54.288Z,30.10
2019-05-13T11:00:46.323Z,30.10
2019-05-13T11:03:23.263Z,30.00
2019-05-13T11:05:59.604Z,29.90
2019-05-13T11:08:36.058Z,29.80
2019-05-13T11:11:12.967Z,29.80
2019-05-13T11:14:11.450Z,29.70
2019-05-13T11:16:45.801Z,29.60
2019-05-13T11:19:23.046Z,29.60
2019-05-13T11:22:02.523Z,29.50
2019-05-13T11:24:38.528Z,29.40
2019-05-13T11:27:15.895Z,29.20
2019-05-13T11:29:52.657Z,28.80
2019-05-13T11:32:31.555Z,28.80
2019-05-13T11:35:07.235Z,28.80
2019-05-13T11:37:44.128Z,28.90
2019-05-13T11:40:23.691Z,29.10
2019-05-13T11:43:01.694Z,29.10
2019-05-13T11:45:38.206Z,29.20
2019-05-13T11:48:14.622Z,29.20
2019-05-13T11:50:53.870Z,28.90
2019-05-13T11:53:34.508Z,28.70
2019-05-13T11:56:07.243Z,28.70
2019-05-13T11:58:43.456Z,28.70
2019-05-13T12:01:22.791Z,28.70
2019-05-13T12:03:57.561Z,28.90
2019-05-13T12:06:35.504Z,28.90
2019-05-13T12:09:13.473Z,29.00
2019-05-13T12:11:50.561Z,28.90
2019-05-13T12:14:44.310Z,28.80
2019-05-13T12:17:05.093Z,28.90
2019-05-13T12:19:41.921Z,28.70
2019-05-13T12:22:18.239Z,28.80
2019-05-13T12:24:54.746Z,28.80
2019-05-13T12:27:32.539Z,28.70
2019-05-13T12:30:09.112Z,28.70
2019-05-13T12:32:45.673Z,28.70
2019-05-13T12:35:22.802Z,28.70
2019-05-13T12:37:59.663Z,28.70
2019-05-13T12:40:36.420Z,28.60
2019-05-13T12:43:13.588Z,28.60
2019-05-13T12:45:53.353Z,28.60
2019-05-13T12:48:29.041Z,28.60
2019-05-13T12:51:08.157Z,28.50
2019-05-13T12:53:47.023Z,28.50
2019-05-13T12:56:23.805Z,28.60
2019-05-13T12:59:02.718Z,28.50
2019-05-13T13:01:39.296Z,28.50
2019-05-13T13:04:15.596Z,28.60
2019-05-13T13:06:53.337Z,28.50
2019-05-13T13:09:48.837Z,28.50
2019-05-13T13:12:34.169Z,28.50
2019-05-13T13:15:30.847Z,28.40
2019-05-13T13:17:41.992Z,28.40
2019-05-13T13:20:24.301Z,28.40
2019-05-13T13:22:58.533Z,28.30
2019-05-13T13:25:34.631Z,28.30
2019-05-13T13:28:15.709Z,28.20
2019-05-13T13:30:53.065Z,28.20
2019-05-13T13:33:33.944Z,28.20
2019-05-13T13:36:15.633Z,28.20
2019-05-13T13:38:55.669Z,28.20
2019-05-13T13:41:28.018Z,28.20
2019-05-13T13:44:05.401Z,28.20
2019-05-13T13:46:48.296Z,28.20
2019-05-13T13:49:23.063Z,28.20
2019-05-13T13:51:58.153Z,28.10
2019-05-13T13:54:34.791Z,28.10
2019-05-13T13:57:13.391Z,28.10
2019-05-13T14:00:19.277Z,27.90
2019-05-13T14:02:28.281Z,27.90
2019-05-13T14:05:05.890Z,27.90
2019-05-13T14:07:43.697Z,27.90
2019-05-13T14:10:22.022Z,28.00
2019-05-13T14:13:02.312Z,27.90
2019-05-13T14:15:35.970Z,28.00
2019-05-13T14:18:12.912Z,28.00
2019-05-13T14:20:52.826Z,27.90
2019-05-13T14:23:28.068Z,27.90
2019-05-13T14:26:05.673Z,27.90
2019-05-13T14:28:43.767Z,27.90
2019-05-13T14:31:21.413Z,27.80
2019-05-13T14:33:59.189Z,27.80
2019-05-13T14:36:35.545Z,27.80
2019-05-13T14:39:13.154Z,27.90
2019-05-13T14:41:51.640Z,27.90
2019-05-13T14:44:29.634Z,27.90
2019-05-13T14:47:07.102Z,27.60
2019-05-13T14:49:44.207Z,27.20
2019-05-13T14:52:28.272Z,27.00
2019-05-13T14:55:05.427Z,26.90
2019-05-13T14:57:43.687Z,26.70
2019-05-13T15:00:22.004Z,26.70
2019-05-13T15:02:58.756Z,26.70
2019-05-13T15:05:37.393Z,26.60
2019-05-13T15:08:14.841Z,26.60
2019-05-13T15:10:53.335Z,26.60
2019-05-13T15:13:32.057Z,26.70
2019-05-13T15:16:08.733Z,26.60
2019-05-13T15:18:45.614Z,26.50
2019-05-13T15:21:21.884Z,26.50
2019-05-13T15:23:58.792Z,26.30
2019-05-13T15:26:35.356Z,26.30
2019-05-13T15:29:11.987Z,26.30
2019-05-13T15:31:51.329Z,26.20
2019-05-13T15:34:28.639Z,26.20
2019-05-13T15:37:05.904Z,26.30
2019-05-13T15:39:42.780Z,26.20
2019-05-13T15:42:21.402Z,26.10
2019-05-13T15:45:01.595Z,26.10
2019-05-13T15:47:36.335Z,26.00
2019-05-13T15:50:12.732Z,25.90
2019-05-13T15:52:51.139Z,25.80
2019-05-13T15:55:33.531Z,25.80
2019-05-13T15:58:11.776Z,25.80
2019-05-13T16:00:48.365Z,25.80
2019-05-13T16:03:24.954Z,25.70
2019-05-13T16:06:01.823Z,25.80
2019-05-13T16:08:38.585Z,25.70
2019-05-13T16:11:15.607Z,25.80
2019-05-13T16:13:52.405Z,25.90
2019-05-13T16:16:31.919Z,25.90
2019-05-13T16:19:07.244Z,25.90
2019-05-13T16:21:44.093Z,25.70
2019-05-13T16:24:21.478Z,25.70
2019-05-13T16:26:58.338Z,25.70
2019-05-13T16:29:35.253Z,25.60
2019-05-13T16:32:12.211Z,25.80
2019-05-13T16:34:51.635Z,25.70
2019-05-13T16:37:28.035Z,25.70
2019-05-13T16:40:04.738Z,25.60
2019-05-13T16:42:42.208Z,25.60
2019-05-13T16:45:21.708Z,25.70
2019-05-13T16:47:59.041Z,25.70
2019-05-13T16:50:35.056Z,25.60
2019-05-13T16:53:11.563Z,25.40
2019-05-13T16:55:51.030Z,25.20
2019-05-13T16:58:27.393Z,25.10
2019-05-13T17:01:04.088Z,25.30
2019-05-13T17:03:41.480Z,25.20
2019-05-13T17:06:21.442Z,25.40
2019-05-13T17:08:57.550Z,25.50
2019-05-13T17:11:34.570Z,25.60
2019-05-13T17:14:11.312Z,25.60
2019-05-13T17:16:47.996Z,25.70
2019-05-13T17:19:24.767Z,25.70
2019-05-13T17:22:02.479Z,25.80
2019-05-13T17:24:42.344Z,25.70
2019-05-13T17:27:17.719Z,25.60
2019-05-13T17:29:54.415Z,25.50
2019-05-13T17:32:31.737Z,25.70
2019-05-13T17:35:08.431Z,25.80
2019-05-13T17:37:45.177Z,25.80
2019-05-13T17:40:22.495Z,25.30
2019-05-13T17:42:59.228Z,25.30
2019-05-13T17:45:36.036Z,25.50
2019-05-13T17:48:25.989Z,25.30
2019-05-13T17:50:52.083Z,25.50
2019-05-13T17:53:32.531Z,25.70
2019-05-13T17:56:08.178Z,25.80
2019-05-13T17:58:44.962Z,25.70
2019-05-13T18:01:21.591Z,25.60
2019-05-13T18:03:58.087Z,25.60
2019-05-13T18:06:34.605Z,25.70
2019-05-13T18:09:12.616Z,25.90
2019-05-13T18:11:49.073Z,25.90
2019-05-13T18:14:26.136Z,25.90
2019-05-13T18:17:03.151Z,25.90
2019-05-13T18:19:41.973Z,25.90
2019-05-13T18:22:18.253Z,25.90
2019-05-13T18:24:54.939Z,25.90
2019-05-13T18:27:32.330Z,25.90
2019-05-13T18:30:11.393Z,25.90
2019-05-13T18:32:47.559Z,25.90
2019-05-13T18:35:24.921Z,25.90
2019-05-13T18:38:11.921Z,25.90
2019-05-13T18:40:48.859Z,25.90
2019-05-13T18:43:25.296Z,25.90
2019-05-13T18:46:02.198Z,25.90
2019-05-13T18:48:57.202Z,25.90
2019-05-13T18:51:17.062Z,25.90
2019-05-13T18:53:53.575Z,25.90
2019-05-13T18:56:32.082Z,25.80
2019-05-13T18:59:07.992Z,25.90
2019-05-13T19:01:44.519Z,25.70
2019-05-13T19:04:21.805Z,25.80
2019-05-13T19:06:58.394Z,25.80
2019-05-13T19:09:35.063Z,25.80
2019-05-13T19:12:11.742Z,25.80
2019-05-13T19:14:48.056Z,25.70
2019-05-13T19:17:24.347Z,25.60
2019-05-13T19:20:01.560Z,25.50
2019-05-13T19:22:38.311Z,25.50
2019-05-13T19:25:15.226Z,25.60
2019-05-13T19:27:51.856Z,25.60
2019-05-13T19:30:28.448Z,25.60
2019-05-13T19:33:04.871Z,25.60
2019-05-13T19:35:42.637Z,25.50
2019-05-13T19:38:21.050Z,25.40
2019-05-13T19:40:56.736Z,25.30
2019-05-13T19:43:33.415Z,25.40
2019-05-13T19:46:10.053Z,25.40
2019-05-13T19:48:46.706Z,25.30
2019-05-13T19:51:23.236Z,25.30
2019-05-13T19:54:01.286Z,25.50
2019-05-13T19:56:37.832Z,25.50
2019-05-13T19:59:14.121Z,25.20
2019-05-13T20:01:51.703Z,25.30
2019-05-13T20:04:28.361Z,25.50
2019-05-13T20:07:04.575Z,25.70
2019-05-13T20:09:42.553Z,25.70
2019-05-13T20:12:21.098Z,25.70
2019-05-13T20:14:57.360Z,25.70
2019-05-13T20:17:34.311Z,25.70
2019-05-13T20:20:12.399Z,25.70
2019-05-13T20:22:51.618Z,25.70
2019-05-13T20:25:26.907Z,25.80
2019-05-13T20:28:03.847Z,25.80
2019-05-13T20:30:42.842Z,25.80
2019-05-13T20:33:22.018Z,25.70
2019-05-13T20:35:58.109Z,25.80
2019-05-13T20:38:35.716Z,25.80
2019-05-13T20:41:12.492Z,25.70
2019-05-13T20:43:51.867Z,25.60
2019-05-13T20:46:27.204Z,25.50
2019-05-13T20:49:03.851Z,25.50
2019-05-13T20:51:41.171Z,25.40
2019-05-13T20:54:18.215Z,25.30
2019-05-13T20:56:55.486Z,25.20
2019-05-13T20:59:32.297Z,25.30
2019-05-13T21:02:08.813Z,25.30
2019-05-13T21:04:45.655Z,25.30
2019-05-13T21:07:22.305Z,25.30
2019-05-13T21:10:01.284Z,25.30
2019-05-13T21:12:38.269Z,25.20
2019-05-13T21:15:15.128Z,24.90
2019-05-13T21:17:52.088Z,25.00
2019-05-13T21:20:28.784Z,25.10
2019-05-13T21:23:05.276Z,25.30
2019-05-13T21:25:42.126Z,25.30
2019-05-13T21:28:18.861Z,25.20
2019-05-13T21:30:55.547Z,25.10
2019-05-13T21:33:32.424Z,25.10
2019-05-13T21:36:09.051Z,24.90
2019-05-13T21:38:45.377Z,24.80
2019-05-13T21:41:22.048Z,24.80
2019-05-13T21:43:58.479Z,24.90
2019-05-13T21:46:35.628Z,25.00
2019-05-13T21:49:12.642Z,25.20
2019-05-13T21:51:49.156Z,25.10
2019-05-13T21:54:26.155Z,25.10
2019-05-13T21:57:02.626Z,25.00
2019-05-13T21:59:41.267Z,24.90
2019-05-13T22:02:16.883Z,24.80
2019-05-13T22:04:53.443Z,24.70
2019-05-13T22:07:31.495Z,24.70
2019-05-13T22:10:09.537Z,24.70
2019-05-13T22:12:45.784Z,24.70
2019-05-13T22:15:22.282Z,24.80
2019-05-13T22:17:58.584Z,25.00
2019-05-13T22:20:47.388Z,24.90
2019-05-13T22:23:14.415Z,24.80
2019-05-13T22:25:51.904Z,24.80
2019-05-13T22:28:28.463Z,24.70
2019-05-13T22:31:05.149Z,24.80
2019-05-13T22:33:41.617Z,24.70
2019-05-13T22:36:17.865Z,24.70
2019-05-13T22:38:54.456Z,24.80
2019-05-13T22:41:31.279Z,24.80
2019-05-13T22:44:07.611Z,24.80
2019-05-13T22:46:44.187Z,24.80
2019-05-13T22:49:22.118Z,24.80
2019-05-13T22:51:58.723Z,24.90
2019-05-13T22:54:45.192Z,24.90
2019-05-13T22:57:21.926Z,25.00
2019-05-13T22:59:59.036Z,25.10
2019-05-13T23:02:35.659Z,25.00
2019-05-13T23:05:12.751Z,25.00
2019-05-13T23:07:48.746Z,25.00
2019-05-13T23:10:26.041Z,25.00
2019-05-13T23:13:02.766Z,25.10
2019-05-13T23:15:39.666Z,25.20
2019-05-13T23:18:16.286Z,25.20
2019-05-13T23:20:53.175Z,25.30
2019-05-13T23:23:30.126Z,25.30
2019-05-13T23:26:06.475Z,25.30
2019-05-13T23:28:43.059Z,25.30
2019-05-13T23:31:19.851Z,25.20
2019-05-13T23:33:57.133Z,25.30
2019-05-13T23:36:34.252Z,25.30
2019-05-13T23:39:11.653Z,25.30
2019-05-13T23:41:48.724Z,25.30
2019-05-13T23:44:28.179Z,25.40
2019-05-13T23:47:03.289Z,25.50
2019-05-13T23:49:42.096Z,25.50
2019-05-13T23:52:21.823Z,25.60
2019-05-13T23:54:57.960Z,25.60
2019-05-13T23:57:36.392Z,25.60
